sensor_id;sensor_type;location;lat;lon;timestamp;P1;durP1;ratioP1;P2;durP2;ratioP2
46507;SDS011;32223;53.654;10.014;2023-11-18T00:00:16;7.60;;;4.38;;
46507;SDS011;32223;53.654;10.014;2023-11-18T00:02:42;5.75;;;3.15;;
46507;SDS011;32223;53.654;10.014;2023-11-18T00:05:08;6.15;;;4.22;;
46507;SDS011;32223;53.654;10.014;2023-11-18T00:07:35;8.55;;;4.28;;
46507;SDS011;32223;53.654;10.014;2023-11-18T00:10:00;5.10;;;2.92;;
46507;SDS011;32223;53.654;10.014;2023-11-18T00:12:26;6.85;;;3.80;;
46507;SDS011;32223;53.654;10.014;2023-11-18T00:14:52;6.97;;;4.13;;
46507;SDS011;32223;53.654;10.014;2023-11-18T00:17:18;6.00;;;3.67;;
46507;SDS011;32223;53.654;10.014;2023-11-18T00:19:45;5.97;;;4.22;;
46507;SDS011;32223;53.654;10.014;2023-11-18T00:22:11;8.30;;;3.88;;
46507;SDS011;32223;53.654;10.014;2023-11-18T00:24:37;6.70;;;4.43;;
46507;SDS011;32223;53.654;10.014;2023-11-18T00:27:03;7.20;;;3.72;;
46507;SDS011;32223;53.654;10.014;2023-11-18T00:29:31;6.32;;;3.90;;
46507;SDS011;32223;53.654;10.014;2023-11-18T00:32:02;6.78;;;3.28;;
46507;SDS011;32223;53.654;10.014;2023-11-18T00:34:29;6.97;;;4.43;;
46507;SDS011;32223;53.654;10.014;2023-11-18T00:36:55;6.35;;;4.07;;
46507;SDS011;32223;53.654;10.014;2023-11-18T00:39:23;6.30;;;3.28;;
46507;SDS011;32223;53.654;10.014;2023-11-18T00:41:52;5.47;;;3.40;;
46507;SDS011;32223;53.654;10.014;2023-11-18T00:44:18;6.10;;;4.07;;
46507;SDS011;32223;53.654;10.014;2023-11-18T00:46:44;7.22;;;3.85;;
46507;SDS011;32223;53.654;10.014;2023-11-18T00:49:09;8.65;;;3.80;;
46507;SDS011;32223;53.654;10.014;2023-11-18T00:51:36;5.80;;;3.42;;
46507;SDS011;32223;53.654;10.014;2023-11-18T00:54:02;6.72;;;3.83;;
46507;SDS011;32223;53.654;10.014;2023-11-18T00:56:30;7.90;;;3.92;;
46507;SDS011;32223;53.654;10.014;2023-11-18T00:58:59;6.90;;;3.60;;
46507;SDS011;32223;53.654;10.014;2023-11-18T01:01:26;6.97;;;3.58;;
46507;SDS011;32223;53.654;10.014;2023-11-18T01:03:52;6.63;;;4.15;;
46507;SDS011;32223;53.654;10.014;2023-11-18T01:06:18;8.25;;;4.30;;
46507;SDS011;32223;53.654;10.014;2023-11-18T01:08:45;6.60;;;3.92;;
46507;SDS011;32223;53.654;10.014;2023-11-18T01:11:10;5.38;;;3.78;;
46507;SDS011;32223;53.654;10.014;2023-11-18T01:13:40;7.53;;;4.18;;
46507;SDS011;32223;53.654;10.014;2023-11-18T01:16:06;9.38;;;4.80;;
46507;SDS011;32223;53.654;10.014;2023-11-18T01:18:32;7.85;;;4.22;;
46507;SDS011;32223;53.654;10.014;2023-11-18T01:20:58;8.15;;;3.70;;
46507;SDS011;32223;53.654;10.014;2023-11-18T01:23:24;6.40;;;3.80;;
46507;SDS011;32223;53.654;10.014;2023-11-18T01:25:51;6.90;;;3.92;;
46507;SDS011;32223;53.654;10.014;2023-11-18T01:28:16;7.05;;;3.80;;
46507;SDS011;32223;53.654;10.014;2023-11-18T01:30:42;7.32;;;4.72;;
46507;SDS011;32223;53.654;10.014;2023-11-18T01:33:09;6.50;;;3.78;;
46507;SDS011;32223;53.654;10.014;2023-11-18T01:35:35;7.82;;;4.00;;
46507;SDS011;32223;53.654;10.014;2023-11-18T01:38:01;8.50;;;4.90;;
46507;SDS011;32223;53.654;10.014;2023-11-18T01:40:27;7.75;;;3.90;;
46507;SDS011;32223;53.654;10.014;2023-11-18T01:42:56;7.32;;;4.53;;
46507;SDS011;32223;53.654;10.014;2023-11-18T01:45:21;6.13;;;4.30;;
46507;SDS011;32223;53.654;10.014;2023-11-18T01:47:47;7.63;;;3.90;;
46507;SDS011;32223;53.654;10.014;2023-11-18T01:50:13;6.93;;;3.65;;
46507;SDS011;32223;53.654;10.014;2023-11-18T01:52:41;6.03;;;4.03;;
46507;SDS011;32223;53.654;10.014;2023-11-18T01:55:07;7.65;;;4.07;;
46507;SDS011;32223;53.654;10.014;2023-11-18T01:57:33;5.43;;;3.55;;
46507;SDS011;32223;53.654;10.014;2023-11-18T02:00:01;7.93;;;4.85;;
46507;SDS011;32223;53.654;10.014;2023-11-18T02:02:31;6.78;;;4.22;;
46507;SDS011;32223;53.654;10.014;2023-11-18T02:04:58;8.65;;;4.57;;
46507;SDS011;32223;53.654;10.014;2023-11-18T02:07:26;9.95;;;4.47;;
46507;SDS011;32223;53.654;10.014;2023-11-18T02:09:55;8.40;;;4.95;;
46507;SDS011;32223;53.654;10.014;2023-11-18T02:12:29;7.63;;;4.28;;
46507;SDS011;32223;53.654;10.014;2023-11-18T02:15:02;7.40;;;4.85;;
46507;SDS011;32223;53.654;10.014;2023-11-18T02:17:35;7.55;;;4.15;;
46507;SDS011;32223;53.654;10.014;2023-11-18T02:20:03;10.23;;;5.70;;
46507;SDS011;32223;53.654;10.014;2023-11-18T02:22:39;8.32;;;5.68;;
46507;SDS011;32223;53.654;10.014;2023-11-18T02:25:07;9.90;;;4.75;;
46507;SDS011;32223;53.654;10.014;2023-11-18T02:27:35;8.48;;;5.32;;
46507;SDS011;32223;53.654;10.014;2023-11-18T02:30:01;9.07;;;4.93;;
46507;SDS011;32223;53.654;10.014;2023-11-18T02:32:39;10.52;;;6.07;;
46507;SDS011;32223;53.654;10.014;2023-11-18T02:35:16;9.23;;;5.18;;
46507;SDS011;32223;53.654;10.014;2023-11-18T02:37:49;8.77;;;4.97;;
46507;SDS011;32223;53.654;10.014;2023-11-18T02:40:19;9.75;;;5.47;;
46507;SDS011;32223;53.654;10.014;2023-11-18T02:42:50;7.75;;;4.68;;
46507;SDS011;32223;53.654;10.014;2023-11-18T02:45:18;8.98;;;5.53;;
46507;SDS011;32223;53.654;10.014;2023-11-18T02:47:45;9.38;;;5.68;;
46507;SDS011;32223;53.654;10.014;2023-11-18T02:50:12;9.32;;;5.63;;
46507;SDS011;32223;53.654;10.014;2023-11-18T02:52:40;11.80;;;5.70;;
46507;SDS011;32223;53.654;10.014;2023-11-18T02:55:06;8.70;;;5.18;;
46507;SDS011;32223;53.654;10.014;2023-11-18T02:57:33;10.27;;;5.53;;
46507;SDS011;32223;53.654;10.014;2023-11-18T02:59:59;9.85;;;5.10;;
46507;SDS011;32223;53.654;10.014;2023-11-18T03:02:28;9.52;;;5.30;;
46507;SDS011;32223;53.654;10.014;2023-11-18T03:04:55;8.43;;;5.75;;
46507;SDS011;32223;53.654;10.014;2023-11-18T03:07:24;10.48;;;5.68;;
46507;SDS011;32223;53.654;10.014;2023-11-18T03:09:53;11.75;;;6.05;;
46507;SDS011;32223;53.654;10.014;2023-11-18T03:12:22;12.27;;;6.03;;
46507;SDS011;32223;53.654;10.014;2023-11-18T03:14:48;13.20;;;5.65;;
46507;SDS011;32223;53.654;10.014;2023-11-18T03:17:14;8.05;;;4.88;;
46507;SDS011;32223;53.654;10.014;2023-11-18T03:19:39;9.05;;;5.15;;
46507;SDS011;32223;53.654;10.014;2023-11-18T03:22:06;12.90;;;6.53;;
46507;SDS011;32223;53.654;10.014;2023-11-18T03:24:32;10.45;;;6.13;;
46507;SDS011;32223;53.654;10.014;2023-11-18T03:26:58;8.93;;;5.30;;
46507;SDS011;32223;53.654;10.014;2023-11-18T03:29:24;7.88;;;5.32;;
46507;SDS011;32223;53.654;10.014;2023-11-18T03:31:49;7.75;;;5.22;;
46507;SDS011;32223;53.654;10.014;2023-11-18T03:34:16;7.90;;;4.68;;
46507;SDS011;32223;53.654;10.014;2023-11-18T03:36:45;7.90;;;4.97;;
46507;SDS011;32223;53.654;10.014;2023-11-18T03:39:11;9.32;;;5.03;;
46507;SDS011;32223;53.654;10.014;2023-11-18T03:41:37;8.70;;;4.70;;
46507;SDS011;32223;53.654;10.014;2023-11-18T03:44:04;9.05;;;5.10;;
46507;SDS011;32223;53.654;10.014;2023-11-18T03:46:29;8.13;;;4.88;;
46507;SDS011;32223;53.654;10.014;2023-11-18T03:48:59;8.32;;;5.10;;
46507;SDS011;32223;53.654;10.014;2023-11-18T03:51:25;7.20;;;4.88;;
46507;SDS011;32223;53.654;10.014;2023-11-18T03:53:51;9.80;;;5.60;;
46507;SDS011;32223;53.654;10.014;2023-11-18T03:56:17;7.75;;;4.47;;
46507;SDS011;32223;53.654;10.014;2023-11-18T03:58:46;7.20;;;4.85;;
46507;SDS011;32223;53.654;10.014;2023-11-18T04:01:19;10.13;;;5.72;;
46507;SDS011;32223;53.654;10.014;2023-11-18T04:03:45;8.70;;;5.07;;
46507;SDS011;32223;53.654;10.014;2023-11-18T04:06:11;9.77;;;4.95;;
46507;SDS011;32223;53.654;10.014;2023-11-18T04:08:38;6.82;;;4.25;;
46507;SDS011;32223;53.654;10.014;2023-11-18T04:11:07;10.18;;;5.50;;
46507;SDS011;32223;53.654;10.014;2023-11-18T04:13:33;7.20;;;4.93;;
46507;SDS011;32223;53.654;10.014;2023-11-18T04:15:58;10.30;;;5.45;;
46507;SDS011;32223;53.654;10.014;2023-11-18T04:18:24;8.95;;;5.15;;
46507;SDS011;32223;53.654;10.014;2023-11-18T04:20:50;8.88;;;5.05;;
46507;SDS011;32223;53.654;10.014;2023-11-18T04:23:15;8.82;;;4.35;;
46507;SDS011;32223;53.654;10.014;2023-11-18T04:25:41;10.45;;;5.55;;
46507;SDS011;32223;53.654;10.014;2023-11-18T04:28:07;10.13;;;5.00;;
46507;SDS011;32223;53.654;10.014;2023-11-18T04:30:32;7.30;;;4.18;;
46507;SDS011;32223;53.654;10.014;2023-11-18T04:32:58;7.43;;;4.53;;
46507;SDS011;32223;53.654;10.014;2023-11-18T04:35:23;8.88;;;5.53;;
46507;SDS011;32223;53.654;10.014;2023-11-18T04:37:49;9.98;;;5.95;;
46507;SDS011;32223;53.654;10.014;2023-11-18T04:40:15;8.88;;;5.20;;
46507;SDS011;32223;53.654;10.014;2023-11-18T04:42:41;10.07;;;5.35;;
46507;SDS011;32223;53.654;10.014;2023-11-18T04:45:07;10.93;;;6.15;;
46507;SDS011;32223;53.654;10.014;2023-11-18T04:47:34;11.35;;;5.65;;
46507;SDS011;32223;53.654;10.014;2023-11-18T04:50:01;9.00;;;5.82;;
46507;SDS011;32223;53.654;10.014;2023-11-18T04:52:28;7.75;;;4.82;;
46507;SDS011;32223;53.654;10.014;2023-11-18T04:54:55;8.90;;;5.35;;
46507;SDS011;32223;53.654;10.014;2023-11-18T04:57:21;9.77;;;5.65;;
46507;SDS011;32223;53.654;10.014;2023-11-18T04:59:46;9.70;;;5.75;;
46507;SDS011;32223;53.654;10.014;2023-11-18T05:02:12;12.40;;;4.95;;
46507;SDS011;32223;53.654;10.014;2023-11-18T05:04:37;8.90;;;5.18;;
46507;SDS011;32223;53.654;10.014;2023-11-18T05:07:03;9.00;;;5.57;;
46507;SDS011;32223;53.654;10.014;2023-11-18T05:09:29;8.63;;;5.80;;
46507;SDS011;32223;53.654;10.014;2023-11-18T05:11:54;9.77;;;5.25;;
46507;SDS011;32223;53.654;10.014;2023-11-18T05:14:20;9.98;;;5.35;;
46507;SDS011;32223;53.654;10.014;2023-11-18T05:16:46;9.52;;;5.25;;
46507;SDS011;32223;53.654;10.014;2023-11-18T05:19:12;9.82;;;5.60;;
46507;SDS011;32223;53.654;10.014;2023-11-18T05:21:37;8.95;;;5.00;;
46507;SDS011;32223;53.654;10.014;2023-11-18T05:24:03;9.95;;;5.85;;
46507;SDS011;32223;53.654;10.014;2023-11-18T05:26:29;8.20;;;5.05;;
46507;SDS011;32223;53.654;10.014;2023-11-18T05:28:55;10.90;;;6.78;;
46507;SDS011;32223;53.654;10.014;2023-11-18T05:31:20;9.13;;;5.82;;
46507;SDS011;32223;53.654;10.014;2023-11-18T05:33:46;11.85;;;6.45;;
46507;SDS011;32223;53.654;10.014;2023-11-18T05:36:17;9.85;;;5.65;;
46507;SDS011;32223;53.654;10.014;2023-11-18T05:38:51;10.15;;;6.15;;
46507;SDS011;32223;53.654;10.014;2023-11-18T05:41:17;11.65;;;5.68;;
46507;SDS011;32223;53.654;10.014;2023-11-18T05:43:52;8.68;;;5.43;;
46507;SDS011;32223;53.654;10.014;2023-11-18T05:46:18;8.82;;;5.55;;
46507;SDS011;32223;53.654;10.014;2023-11-18T05:48:49;10.75;;;5.50;;
46507;SDS011;32223;53.654;10.014;2023-11-18T05:51:19;7.75;;;4.53;;
46507;SDS011;32223;53.654;10.014;2023-11-18T05:53:48;8.50;;;4.78;;
46507;SDS011;32223;53.654;10.014;2023-11-18T05:56:14;10.60;;;5.97;;
46507;SDS011;32223;53.654;10.014;2023-11-18T05:58:43;10.00;;;6.10;;
46507;SDS011;32223;53.654;10.014;2023-11-18T06:01:10;8.23;;;5.30;;
46507;SDS011;32223;53.654;10.014;2023-11-18T06:03:37;9.27;;;5.18;;
46507;SDS011;32223;53.654;10.014;2023-11-18T06:06:07;10.82;;;5.43;;
46507;SDS011;32223;53.654;10.014;2023-11-18T06:08:34;9.73;;;5.93;;
46507;SDS011;32223;53.654;10.014;2023-11-18T06:11:01;9.38;;;5.38;;
46507;SDS011;32223;53.654;10.014;2023-11-18T06:13:37;10.07;;;5.22;;
46507;SDS011;32223;53.654;10.014;2023-11-18T06:16:17;9.68;;;5.65;;
46507;SDS011;32223;53.654;10.014;2023-11-18T06:18:45;9.95;;;5.55;;
46507;SDS011;32223;53.654;10.014;2023-11-18T06:21:13;11.32;;;5.65;;
46507;SDS011;32223;53.654;10.014;2023-11-18T06:23:39;9.75;;;6.05;;
46507;SDS011;32223;53.654;10.014;2023-11-18T06:26:06;9.38;;;5.75;;
46507;SDS011;32223;53.654;10.014;2023-11-18T06:28:35;10.20;;;6.07;;
46507;SDS011;32223;53.654;10.014;2023-11-18T06:31:05;10.25;;;5.57;;
46507;SDS011;32223;53.654;10.014;2023-11-18T06:33:36;11.48;;;5.35;;
46507;SDS011;32223;53.654;10.014;2023-11-18T06:36:02;11.10;;;6.55;;
46507;SDS011;32223;53.654;10.014;2023-11-18T06:38:30;8.55;;;5.10;;
46507;SDS011;32223;53.654;10.014;2023-11-18T06:40:55;14.68;;;6.35;;
46507;SDS011;32223;53.654;10.014;2023-11-18T06:43:23;15.05;;;7.10;;
46507;SDS011;32223;53.654;10.014;2023-11-18T06:45:49;53.08;;;29.63;;
46507;SDS011;32223;53.654;10.014;2023-11-18T06:48:15;11.38;;;6.55;;
46507;SDS011;32223;53.654;10.014;2023-11-18T06:50:45;9.27;;;5.40;;
46507;SDS011;32223;53.654;10.014;2023-11-18T06:53:11;11.93;;;6.43;;
46507;SDS011;32223;53.654;10.014;2023-11-18T06:55:37;10.90;;;6.40;;
46507;SDS011;32223;53.654;10.014;2023-11-18T06:58:03;12.40;;;6.72;;
46507;SDS011;32223;53.654;10.014;2023-11-18T07:00:28;11.70;;;6.97;;
46507;SDS011;32223;53.654;10.014;2023-11-18T07:02:54;10.02;;;5.35;;
46507;SDS011;32223;53.654;10.014;2023-11-18T07:05:20;10.55;;;6.28;;
46507;SDS011;32223;53.654;10.014;2023-11-18T07:07:49;12.43;;;6.80;;
46507;SDS011;32223;53.654;10.014;2023-11-18T07:10:15;11.25;;;6.90;;
46507;SDS011;32223;53.654;10.014;2023-11-18T07:12:45;12.43;;;6.80;;
46507;SDS011;32223;53.654;10.014;2023-11-18T07:15:13;11.07;;;6.22;;
46507;SDS011;32223;53.654;10.014;2023-11-18T07:17:39;10.98;;;6.30;;
46507;SDS011;32223;53.654;10.014;2023-11-18T07:20:05;9.55;;;6.53;;
46507;SDS011;32223;53.654;10.014;2023-11-18T07:22:31;14.20;;;7.32;;
46507;SDS011;32223;53.654;10.014;2023-11-18T07:24:57;11.88;;;6.78;;
46507;SDS011;32223;53.654;10.014;2023-11-18T07:27:22;11.10;;;6.72;;
46507;SDS011;32223;53.654;10.014;2023-11-18T07:29:48;11.65;;;6.85;;
46507;SDS011;32223;53.654;10.014;2023-11-18T07:32:14;18.48;;;10.38;;
46507;SDS011;32223;53.654;10.014;2023-11-18T07:34:39;13.63;;;7.82;;
46507;SDS011;32223;53.654;10.014;2023-11-18T07:37:06;13.30;;;8.32;;
46507;SDS011;32223;53.654;10.014;2023-11-18T07:39:33;12.75;;;7.30;;
46507;SDS011;32223;53.654;10.014;2023-11-18T07:42:13;10.32;;;5.80;;
46507;SDS011;32223;53.654;10.014;2023-11-18T07:44:40;10.85;;;5.70;;
46507;SDS011;32223;53.654;10.014;2023-11-18T07:47:06;11.55;;;6.32;;
46507;SDS011;32223;53.654;10.014;2023-11-18T07:49:34;11.40;;;6.18;;
46507;SDS011;32223;53.654;10.014;2023-11-18T07:52:03;12.50;;;6.28;;
46507;SDS011;32223;53.654;10.014;2023-11-18T07:54:29;12.48;;;6.65;;
46507;SDS011;32223;53.654;10.014;2023-11-18T07:56:54;10.88;;;6.40;;
46507;SDS011;32223;53.654;10.014;2023-11-18T07:59:20;12.63;;;7.25;;
46507;SDS011;32223;53.654;10.014;2023-11-18T08:01:46;10.77;;;6.22;;
46507;SDS011;32223;53.654;10.014;2023-11-18T08:04:13;11.70;;;7.00;;
46507;SDS011;32223;53.654;10.014;2023-11-18T08:06:39;11.40;;;6.90;;
46507;SDS011;32223;53.654;10.014;2023-11-18T08:09:06;15.25;;;7.53;;
46507;SDS011;32223;53.654;10.014;2023-11-18T08:11:38;12.18;;;6.97;;
46507;SDS011;32223;53.654;10.014;2023-11-18T08:14:06;13.20;;;7.00;;
46507;SDS011;32223;53.654;10.014;2023-11-18T08:16:33;10.43;;;6.40;;
46507;SDS011;32223;53.654;10.014;2023-11-18T08:18:58;11.13;;;6.78;;
46507;SDS011;32223;53.654;10.014;2023-11-18T08:21:25;11.02;;;7.00;;
46507;SDS011;32223;53.654;10.014;2023-11-18T08:23:50;11.63;;;7.07;;
46507;SDS011;32223;53.654;10.014;2023-11-18T08:26:16;12.05;;;7.03;;
46507;SDS011;32223;53.654;10.014;2023-11-18T08:28:44;12.98;;;7.68;;
46507;SDS011;32223;53.654;10.014;2023-11-18T08:31:12;12.38;;;6.97;;
46507;SDS011;32223;53.654;10.014;2023-11-18T08:33:40;13.38;;;7.03;;
46507;SDS011;32223;53.654;10.014;2023-11-18T08:36:06;11.10;;;6.65;;
46507;SDS011;32223;53.654;10.014;2023-11-18T08:38:32;15.30;;;6.65;;
46507;SDS011;32223;53.654;10.014;2023-11-18T08:41:03;10.35;;;6.30;;
46507;SDS011;32223;53.654;10.014;2023-11-18T08:43:34;9.90;;;6.38;;
46507;SDS011;32223;53.654;10.014;2023-11-18T08:46:00;13.18;;;7.15;;
46507;SDS011;32223;53.654;10.014;2023-11-18T08:48:26;11.75;;;7.15;;
46507;SDS011;32223;53.654;10.014;2023-11-18T08:50:53;13.88;;;7.00;;
46507;SDS011;32223;53.654;10.014;2023-11-18T08:53:22;13.93;;;6.47;;
46507;SDS011;32223;53.654;10.014;2023-11-18T08:55:51;12.18;;;7.22;;
46507;SDS011;32223;53.654;10.014;2023-11-18T08:58:19;13.77;;;7.75;;
46507;SDS011;32223;53.654;10.014;2023-11-18T09:00:47;11.85;;;6.55;;
46507;SDS011;32223;53.654;10.014;2023-11-18T09:03:23;11.10;;;6.45;;
46507;SDS011;32223;53.654;10.014;2023-11-18T09:05:53;12.18;;;6.15;;
46507;SDS011;32223;53.654;10.014;2023-11-18T09:11:04;10.40;;;5.97;;
46507;SDS011;32223;53.654;10.014;2023-11-18T09:13:31;8.98;;;4.70;;
46507;SDS011;32223;53.654;10.014;2023-11-18T09:16:00;11.27;;;4.45;;
46507;SDS011;32223;53.654;10.014;2023-11-18T09:18:47;9.85;;;4.68;;
46507;SDS011;32223;53.654;10.014;2023-11-18T09:21:13;9.23;;;4.38;;
46507;SDS011;32223;53.654;10.014;2023-11-18T09:23:40;7.80;;;4.28;;
46507;SDS011;32223;53.654;10.014;2023-11-18T09:26:07;7.20;;;3.47;;
46507;SDS011;32223;53.654;10.014;2023-11-18T09:28:34;6.60;;;3.50;;
46507;SDS011;32223;53.654;10.014;2023-11-18T09:31:00;8.23;;;4.10;;
46507;SDS011;32223;53.654;10.014;2023-11-18T09:33:28;7.32;;;4.00;;
46507;SDS011;32223;53.654;10.014;2023-11-18T09:36:04;7.05;;;3.30;;
46507;SDS011;32223;53.654;10.014;2023-11-18T09:38:37;7.57;;;3.50;;
46507;SDS011;32223;53.654;10.014;2023-11-18T09:41:06;8.40;;;3.80;;
46507;SDS011;32223;53.654;10.014;2023-11-18T09:43:36;7.50;;;3.03;;
46507;SDS011;32223;53.654;10.014;2023-11-18T09:46:15;8.15;;;4.50;;
46507;SDS011;32223;53.654;10.014;2023-11-18T09:51:25;5.47;;;3.10;;
46507;SDS011;32223;53.654;10.014;2023-11-18T09:53:55;5.40;;;2.55;;
46507;SDS011;32223;53.654;10.014;2023-11-18T09:59:11;5.25;;;2.75;;
46507;SDS011;32223;53.654;10.014;2023-11-18T10:02:00;4.25;;;2.42;;
46507;SDS011;32223;53.654;10.014;2023-11-18T10:04:35;7.78;;;3.10;;
46507;SDS011;32223;53.654;10.014;2023-11-18T10:07:04;7.50;;;3.40;;
46507;SDS011;32223;53.654;10.014;2023-11-18T10:09:35;4.72;;;2.58;;
46507;SDS011;32223;53.654;10.014;2023-11-18T10:12:04;3.97;;;2.10;;
46507;SDS011;32223;53.654;10.014;2023-11-18T10:14:32;4.28;;;2.20;;
46507;SDS011;32223;53.654;10.014;2023-11-18T10:17:08;4.13;;;1.70;;
46507;SDS011;32223;53.654;10.014;2023-11-18T10:19:54;3.37;;;2.50;;
46507;SDS011;32223;53.654;10.014;2023-11-18T10:22:22;3.40;;;1.50;;
46507;SDS011;32223;53.654;10.014;2023-11-18T10:24:49;3.30;;;1.88;;
46507;SDS011;32223;53.654;10.014;2023-11-18T10:27:20;3.35;;;1.90;;
46507;SDS011;32223;53.654;10.014;2023-11-18T10:29:56;3.55;;;1.70;;
46507;SDS011;32223;53.654;10.014;2023-11-18T10:32:43;3.15;;;1.85;;
46507;SDS011;32223;53.654;10.014;2023-11-18T10:35:21;3.42;;;2.13;;
46507;SDS011;32223;53.654;10.014;2023-11-18T10:37:47;4.72;;;2.28;;
46507;SDS011;32223;53.654;10.014;2023-11-18T10:40:14;2.70;;;1.73;;
46507;SDS011;32223;53.654;10.014;2023-11-18T10:42:40;3.53;;;2.08;;
46507;SDS011;32223;53.654;10.014;2023-11-18T10:45:15;5.20;;;2.42;;
46507;SDS011;32223;53.654;10.014;2023-11-18T10:47:49;3.63;;;2.10;;
46507;SDS011;32223;53.654;10.014;2023-11-18T10:50:15;4.63;;;2.22;;
46507;SDS011;32223;53.654;10.014;2023-11-18T10:52:45;4.35;;;1.98;;
46507;SDS011;32223;53.654;10.014;2023-11-18T10:55:11;3.08;;;2.00;;
46507;SDS011;32223;53.654;10.014;2023-11-18T10:57:36;3.72;;;1.95;;
46507;SDS011;32223;53.654;10.014;2023-11-18T11:00:07;5.32;;;2.20;;
46507;SDS011;32223;53.654;10.014;2023-11-18T11:05:06;2.50;;;1.50;;
46507;SDS011;32223;53.654;10.014;2023-11-18T11:07:40;2.72;;;1.70;;
46507;SDS011;32223;53.654;10.014;2023-11-18T11:10:07;3.92;;;1.60;;
46507;SDS011;32223;53.654;10.014;2023-11-18T11:12:35;1.75;;;0.98;;
46507;SDS011;32223;53.654;10.014;2023-11-18T11:15:20;2.47;;;1.20;;
46507;SDS011;32223;53.654;10.014;2023-11-18T11:17:54;2.30;;;1.13;;
46507;SDS011;32223;53.654;10.014;2023-11-18T11:20:34;2.67;;;1.30;;
46507;SDS011;32223;53.654;10.014;2023-11-18T11:23:20;2.75;;;1.30;;
46507;SDS011;32223;53.654;10.014;2023-11-18T11:28:55;2.60;;;1.48;;
46507;SDS011;32223;53.654;10.014;2023-11-18T11:31:34;2.35;;;1.30;;
46507;SDS011;32223;53.654;10.014;2023-11-18T11:34:14;11.35;;;2.38;;
46507;SDS011;32223;53.654;10.014;2023-11-18T11:39:22;2.72;;;1.50;;
46507;SDS011;32223;53.654;10.014;2023-11-18T11:41:53;3.13;;;1.40;;
46507;SDS011;32223;53.654;10.014;2023-11-18T11:44:21;2.95;;;1.60;;
46507;SDS011;32223;53.654;10.014;2023-11-18T11:46:56;2.05;;;1.30;;
46507;SDS011;32223;53.654;10.014;2023-11-18T11:49:25;5.90;;;1.60;;
46507;SDS011;32223;53.654;10.014;2023-11-18T11:54:31;1.92;;;1.30;;
46507;SDS011;32223;53.654;10.014;2023-11-18T11:57:03;2.22;;;1.20;;
46507;SDS011;32223;53.654;10.014;2023-11-18T12:02:27;3.83;;;1.42;;
46507;SDS011;32223;53.654;10.014;2023-11-18T12:04:57;2.85;;;1.77;;
46507;SDS011;32223;53.654;10.014;2023-11-18T12:07:27;2.90;;;1.52;;
46507;SDS011;32223;53.654;10.014;2023-11-18T12:09:56;2.55;;;1.40;;
46507;SDS011;32223;53.654;10.014;2023-11-18T12:12:23;3.25;;;1.90;;
46507;SDS011;32223;53.654;10.014;2023-11-18T12:17:21;2.78;;;1.42;;
46507;SDS011;32223;53.654;10.014;2023-11-18T12:19:51;8.02;;;3.80;;
46507;SDS011;32223;53.654;10.014;2023-11-18T12:25:39;3.35;;;1.27;;
46507;SDS011;32223;53.654;10.014;2023-11-18T12:28:09;3.65;;;2.00;;
46507;SDS011;32223;53.654;10.014;2023-11-18T12:30:39;2.53;;;1.63;;
46507;SDS011;32223;53.654;10.014;2023-11-18T12:33:17;3.15;;;2.20;;
46507;SDS011;32223;53.654;10.014;2023-11-18T12:44:09;3.13;;;1.92;;
46507;SDS011;32223;53.654;10.014;2023-11-18T12:46:50;4.03;;;2.85;;
46507;SDS011;32223;53.654;10.014;2023-11-18T12:49:22;3.20;;;2.00;;
46507;SDS011;32223;53.654;10.014;2023-11-18T12:51:50;4.85;;;2.75;;
46507;SDS011;32223;53.654;10.014;2023-11-18T12:54:17;5.55;;;2.80;;
46507;SDS011;32223;53.654;10.014;2023-11-18T12:56:44;3.15;;;2.10;;
46507;SDS011;32223;53.654;10.014;2023-11-18T12:59:16;5.40;;;2.65;;
46507;SDS011;32223;53.654;10.014;2023-11-18T13:01:49;5.22;;;2.63;;
46507;SDS011;32223;53.654;10.014;2023-11-18T13:04:27;4.40;;;2.58;;
46507;SDS011;32223;53.654;10.014;2023-11-18T13:06:56;4.75;;;2.65;;
46507;SDS011;32223;53.654;10.014;2023-11-18T13:09:24;6.75;;;3.20;;
46507;SDS011;32223;53.654;10.014;2023-11-18T13:11:53;4.93;;;2.38;;
46507;SDS011;32223;53.654;10.014;2023-11-18T13:14:24;4.13;;;2.50;;
46507;SDS011;32223;53.654;10.014;2023-11-18T13:16:51;5.35;;;2.30;;
46507;SDS011;32223;53.654;10.014;2023-11-18T13:19:24;4.32;;;2.33;;
46507;SDS011;32223;53.654;10.014;2023-11-18T13:21:55;4.93;;;2.17;;
46507;SDS011;32223;53.654;10.014;2023-11-18T13:24:26;3.92;;;2.33;;
46507;SDS011;32223;53.654;10.014;2023-11-18T13:26:54;4.43;;;2.60;;
46507;SDS011;32223;53.654;10.014;2023-11-18T13:29:21;4.97;;;2.40;;
46507;SDS011;32223;53.654;10.014;2023-11-18T13:31:47;5.00;;;2.90;;
46507;SDS011;32223;53.654;10.014;2023-11-18T13:34:14;8.98;;;3.33;;
46507;SDS011;32223;53.654;10.014;2023-11-18T13:36:42;4.88;;;2.75;;
46507;SDS011;32223;53.654;10.014;2023-11-18T13:39:09;4.75;;;2.38;;
46507;SDS011;32223;53.654;10.014;2023-11-18T13:41:42;6.50;;;2.90;;
46507;SDS011;32223;53.654;10.014;2023-11-18T13:44:07;7.63;;;2.65;;
46507;SDS011;32223;53.654;10.014;2023-11-18T13:46:37;4.55;;;2.75;;
46507;SDS011;32223;53.654;10.014;2023-11-18T13:49:05;5.15;;;3.53;;
46507;SDS011;32223;53.654;10.014;2023-11-18T13:51:31;4.95;;;2.78;;
46507;SDS011;32223;53.654;10.014;2023-11-18T13:54:00;5.00;;;2.90;;
46507;SDS011;32223;53.654;10.014;2023-11-18T13:56:26;4.32;;;2.50;;
46507;SDS011;32223;53.654;10.014;2023-11-18T13:58:53;4.10;;;2.65;;
46507;SDS011;32223;53.654;10.014;2023-11-18T14:01:19;5.15;;;3.55;;
46507;SDS011;32223;53.654;10.014;2023-11-18T14:03:46;5.18;;;2.97;;
46507;SDS011;32223;53.654;10.014;2023-11-18T14:06:13;4.45;;;2.90;;
46507;SDS011;32223;53.654;10.014;2023-11-18T14:08:42;5.65;;;2.83;;
46507;SDS011;32223;53.654;10.014;2023-11-18T14:11:11;6.28;;;3.38;;
46507;SDS011;32223;53.654;10.014;2023-11-18T14:13:37;5.13;;;2.78;;
46507;SDS011;32223;53.654;10.014;2023-11-18T14:16:03;4.25;;;2.67;;
46507;SDS011;32223;53.654;10.014;2023-11-18T14:18:34;5.13;;;2.85;;
46507;SDS011;32223;53.654;10.014;2023-11-18T14:21:01;4.68;;;2.88;;
46507;SDS011;32223;53.654;10.014;2023-11-18T14:23:27;4.78;;;2.60;;
46507;SDS011;32223;53.654;10.014;2023-11-18T14:25:53;5.03;;;3.28;;
46507;SDS011;32223;53.654;10.014;2023-11-18T14:28:18;5.30;;;3.15;;
46507;SDS011;32223;53.654;10.014;2023-11-18T14:30:50;4.95;;;2.80;;
46507;SDS011;32223;53.654;10.014;2023-11-18T14:33:15;4.82;;;2.63;;
46507;SDS011;32223;53.654;10.014;2023-11-18T14:35:43;5.68;;;3.05;;
46507;SDS011;32223;53.654;10.014;2023-11-18T14:38:10;6.18;;;2.22;;
46507;SDS011;32223;53.654;10.014;2023-11-18T14:40:38;5.13;;;2.97;;
46507;SDS011;32223;53.654;10.014;2023-11-18T14:43:05;4.85;;;3.10;;
46507;SDS011;32223;53.654;10.014;2023-11-18T14:45:31;4.78;;;3.05;;
46507;SDS011;32223;53.654;10.014;2023-11-18T14:47:57;7.15;;;2.85;;
46507;SDS011;32223;53.654;10.014;2023-11-18T14:50:23;5.30;;;2.72;;
46507;SDS011;32223;53.654;10.014;2023-11-18T14:52:51;5.43;;;2.65;;
46507;SDS011;32223;53.654;10.014;2023-11-18T14:55:19;5.45;;;2.45;;
46507;SDS011;32223;53.654;10.014;2023-11-18T14:57:45;4.65;;;2.65;;
46507;SDS011;32223;53.654;10.014;2023-11-18T15:00:11;3.70;;;2.10;;
46507;SDS011;32223;53.654;10.014;2023-11-18T15:02:47;5.10;;;2.97;;
46507;SDS011;32223;53.654;10.014;2023-11-18T15:05:17;3.80;;;2.20;;
46507;SDS011;32223;53.654;10.014;2023-11-18T15:07:50;3.47;;;2.10;;
46507;SDS011;32223;53.654;10.014;2023-11-18T15:10:18;6.78;;;2.33;;
46507;SDS011;32223;53.654;10.014;2023-11-18T15:12:46;3.95;;;2.10;;